Terminal Aerodrome Forecast
Issued by NWS Cleveland, OH

Home | Current Version | Previous Version | Graphics & Text | Print | Product List | Glossary Off
Versions: 1 2 3 4 5 6 7 8 9 10 11 12 13 14 15 16

000
FTUS41 KCLE 272339
TAFYNG
TAF
KYNG 272339Z 2800/2824 15004KT P6SM SCT020 OVC050
      TEMPO 2800/2803 BKN020
     FM280400 15004KT P6SM SCT050 BKN120
     FM281500 16008KT 5SM -SHRA OVC050
     FM281700 18010KT 5SM -SHRA BR OVC015=

USA.gov is the U.S. government's official web portal to all federal, state and local government web resources and services.